sensor_id;sensor_type;location;lat;lon;timestamp;pressure;altitude;pressure_sealevel;temperature;humidity
49645;BME280;36494;50.730;-1.932;2023-04-21T00:01:24;101104.50;;;6.36;100.00
49645;BME280;36494;50.730;-1.932;2023-04-21T00:03:49;101102.63;;;6.38;100.00
49645;BME280;36494;50.730;-1.932;2023-04-21T00:06:14;101105.55;;;6.32;100.00
49645;BME280;36494;50.730;-1.932;2023-04-21T00:08:40;101102.35;;;6.30;100.00
49645;BME280;36494;50.730;-1.932;2023-04-21T00:11:06;101098.33;;;6.29;100.00
49645;BME280;36494;50.730;-1.932;2023-04-21T00:13:31;101092.03;;;6.29;100.00
49645;BME280;36494;50.730;-1.932;2023-04-21T00:15:56;101088.47;;;6.25;100.00
49645;BME280;36494;50.730;-1.932;2023-04-21T00:18:21;101085.12;;;6.20;100.00
49645;BME280;36494;50.730;-1.932;2023-04-21T00:20:47;101074.76;;;6.21;100.00
49645;BME280;36494;50.730;-1.932;2023-04-21T00:23:13;101076.17;;;6.19;100.00
49645;BME280;36494;50.730;-1.932;2023-04-21T00:25:38;101067.40;;;6.18;100.00
49645;BME280;36494;50.730;-1.932;2023-04-21T00:28:03;101064.69;;;6.16;100.00
49645;BME280;36494;50.730;-1.932;2023-04-21T00:30:29;101068.65;;;6.14;100.00
49645;BME280;36494;50.730;-1.932;2023-04-21T00:32:54;101070.14;;;6.07;100.00
49645;BME280;36494;50.730;-1.932;2023-04-21T00:35:20;101072.42;;;6.07;100.00
49645;BME280;36494;50.730;-1.932;2023-04-21T00:37:45;101072.97;;;6.05;100.00
49645;BME280;36494;50.730;-1.932;2023-04-21T00:40:11;101069.86;;;6.04;100.00
49645;BME280;36494;50.730;-1.932;2023-04-21T00:42:36;101065.19;;;6.02;100.00
49645;BME280;36494;50.730;-1.932;2023-04-21T00:45:03;101064.85;;;6.01;100.00
49645;BME280;36494;50.730;-1.932;2023-04-21T00:47:28;101069.12;;;5.99;100.00
49645;BME280;36494;50.730;-1.932;2023-04-21T00:49:53;101068.82;;;5.98;100.00
49645;BME280;36494;50.730;-1.932;2023-04-21T00:52:19;101061.80;;;5.96;100.00
49645;BME280;36494;50.730;-1.932;2023-04-21T00:54:45;101060.60;;;5.92;100.00
49645;BME280;36494;50.730;-1.932;2023-04-21T00:57:10;101055.41;;;5.88;100.00
49645;BME280;36494;50.730;-1.932;2023-04-21T00:59:35;101052.34;;;5.88;100.00
49645;BME280;36494;50.730;-1.932;2023-04-21T01:02:00;101057.49;;;5.89;100.00
49645;BME280;36494;50.730;-1.932;2023-04-21T01:04:26;101054.24;;;5.85;100.00
49645;BME280;36494;50.730;-1.932;2023-04-21T01:06:51;101051.62;;;5.84;100.00
49645;BME280;36494;50.730;-1.932;2023-04-21T01:09:16;101054.38;;;5.81;100.00
49645;BME280;36494;50.730;-1.932;2023-04-21T01:11:42;101050.20;;;5.80;100.00
49645;BME280;36494;50.730;-1.932;2023-04-21T01:14:07;101049.74;;;5.79;100.00
49645;BME280;36494;50.730;-1.932;2023-04-21T01:16:33;101044.50;;;5.77;100.00
49645;BME280;36494;50.730;-1.932;2023-04-21T01:18:59;101043.80;;;5.75;100.00
49645;BME280;36494;50.730;-1.932;2023-04-21T01:21:24;101043.96;;;5.74;100.00
49645;BME280;36494;50.730;-1.932;2023-04-21T01:23:50;101045.97;;;5.74;100.00
49645;BME280;36494;50.730;-1.932;2023-04-21T01:26:17;101044.41;;;5.73;100.00
49645;BME280;36494;50.730;-1.932;2023-04-21T01:28:40;101046.71;;;5.74;100.00
49645;BME280;36494;50.730;-1.932;2023-04-21T01:31:05;101040.43;;;5.74;100.00
49645;BME280;36494;50.730;-1.932;2023-04-21T01:33:31;101041.36;;;5.75;100.00
49645;BME280;36494;50.730;-1.932;2023-04-21T01:35:56;101040.33;;;5.76;100.00
49645;BME280;36494;50.730;-1.932;2023-04-21T01:38:22;101034.87;;;5.77;100.00
49645;BME280;36494;50.730;-1.932;2023-04-21T01:40:49;101034.34;;;5.76;100.00
49645;BME280;36494;50.730;-1.932;2023-04-21T01:43:13;101031.99;;;5.78;100.00
49645;BME280;36494;50.730;-1.932;2023-04-21T01:45:37;101030.11;;;5.78;100.00
49645;BME280;36494;50.730;-1.932;2023-04-21T01:48:04;101033.62;;;5.76;100.00
49645;BME280;36494;50.730;-1.932;2023-04-21T01:50:29;101030.70;;;5.77;100.00
49645;BME280;36494;50.730;-1.932;2023-04-21T01:52:54;101029.28;;;5.78;100.00
49645;BME280;36494;50.730;-1.932;2023-04-21T01:55:20;101026.44;;;5.81;100.00
49645;BME280;36494;50.730;-1.932;2023-04-21T01:57:45;101030.38;;;5.83;100.00
49645;BME280;36494;50.730;-1.932;2023-04-21T02:00:12;101029.59;;;5.87;100.00
49645;BME280;36494;50.730;-1.932;2023-04-21T02:02:36;101021.62;;;5.90;100.00
49645;BME280;36494;50.730;-1.932;2023-04-21T02:05:01;101017.67;;;5.91;100.00
49645;BME280;36494;50.730;-1.932;2023-04-21T02:07:26;101012.69;;;5.94;100.00
49645;BME280;36494;50.730;-1.932;2023-04-21T02:09:52;101008.03;;;5.95;100.00
49645;BME280;36494;50.730;-1.932;2023-04-21T02:12:18;101005.73;;;5.96;100.00
49645;BME280;36494;50.730;-1.932;2023-04-21T02:14:43;100996.92;;;5.98;100.00
49645;BME280;36494;50.730;-1.932;2023-04-21T02:17:08;100995.46;;;5.96;100.00
49645;BME280;36494;50.730;-1.932;2023-04-21T02:19:34;100993.26;;;5.99;100.00
49645;BME280;36494;50.730;-1.932;2023-04-21T02:21:59;100990.37;;;5.99;100.00
49645;BME280;36494;50.730;-1.932;2023-04-21T02:24:25;100986.19;;;5.97;100.00
49645;BME280;36494;50.730;-1.932;2023-04-21T02:26:50;100983.25;;;5.98;100.00
49645;BME280;36494;50.730;-1.932;2023-04-21T02:29:16;100984.28;;;5.97;100.00
49645;BME280;36494;50.730;-1.932;2023-04-21T02:31:41;100976.80;;;5.96;100.00
49645;BME280;36494;50.730;-1.932;2023-04-21T02:34:07;100972.71;;;5.97;100.00
49645;BME280;36494;50.730;-1.932;2023-04-21T02:36:33;100968.66;;;6.03;100.00
49645;BME280;36494;50.730;-1.932;2023-04-21T02:38:57;100967.63;;;6.01;100.00
49645;BME280;36494;50.730;-1.932;2023-04-21T02:41:23;100968.64;;;6.03;100.00
49645;BME280;36494;50.730;-1.932;2023-04-21T02:43:49;100963.06;;;6.02;100.00
49645;BME280;36494;50.730;-1.932;2023-04-21T02:46:14;100962.39;;;6.03;100.00
49645;BME280;36494;50.730;-1.932;2023-04-21T02:48:39;100959.58;;;6.05;100.00
49645;BME280;36494;50.730;-1.932;2023-04-21T02:51:05;100958.87;;;6.04;100.00
49645;BME280;36494;50.730;-1.932;2023-04-21T02:53:30;100953.47;;;6.03;100.00
49645;BME280;36494;50.730;-1.932;2023-04-21T02:55:55;100951.52;;;6.02;100.00
49645;BME280;36494;50.730;-1.932;2023-04-21T02:58:22;100949.02;;;6.02;100.00
49645;BME280;36494;50.730;-1.932;2023-04-21T03:00:47;100942.99;;;6.00;100.00
49645;BME280;36494;50.730;-1.932;2023-04-21T03:03:14;100940.31;;;5.98;100.00
49645;BME280;36494;50.730;-1.932;2023-04-21T03:05:37;100935.90;;;5.96;100.00
49645;BME280;36494;50.730;-1.932;2023-04-21T03:08:03;100937.64;;;5.94;100.00
49645;BME280;36494;50.730;-1.932;2023-04-21T03:10:28;100937.81;;;5.94;100.00
49645;BME280;36494;50.730;-1.932;2023-04-21T03:12:54;100937.19;;;5.94;100.00
49645;BME280;36494;50.730;-1.932;2023-04-21T03:15:19;100936.83;;;5.94;100.00
49645;BME280;36494;50.730;-1.932;2023-04-21T03:17:44;100937.70;;;5.94;100.00
49645;BME280;36494;50.730;-1.932;2023-04-21T03:20:10;100937.73;;;5.93;100.00
49645;BME280;36494;50.730;-1.932;2023-04-21T03:22:35;100931.89;;;5.94;100.00
49645;BME280;36494;50.730;-1.932;2023-04-21T03:25:01;100925.26;;;5.94;100.00
49645;BME280;36494;50.730;-1.932;2023-04-21T03:27:26;100916.59;;;5.96;100.00
49645;BME280;36494;50.730;-1.932;2023-04-21T03:29:51;100907.33;;;5.94;100.00
49645;BME280;36494;50.730;-1.932;2023-04-21T03:32:16;100902.67;;;5.93;100.00
49645;BME280;36494;50.730;-1.932;2023-04-21T03:34:42;100899.57;;;5.90;100.00
49645;BME280;36494;50.730;-1.932;2023-04-21T03:37:07;100896.96;;;5.91;100.00
49645;BME280;36494;50.730;-1.932;2023-04-21T03:39:32;100898.35;;;5.91;100.00
49645;BME280;36494;50.730;-1.932;2023-04-21T03:41:57;100899.90;;;5.90;100.00
49645;BME280;36494;50.730;-1.932;2023-04-21T03:44:24;100898.33;;;5.90;100.00
49645;BME280;36494;50.730;-1.932;2023-04-21T03:46:51;100894.82;;;5.90;100.00
49645;BME280;36494;50.730;-1.932;2023-04-21T03:49:13;100886.28;;;5.91;100.00
49645;BME280;36494;50.730;-1.932;2023-04-21T03:51:39;100883.03;;;5.89;100.00
49645;BME280;36494;50.730;-1.932;2023-04-21T03:54:04;100882.20;;;5.88;100.00
49645;BME280;36494;50.730;-1.932;2023-04-21T03:56:29;100880.19;;;5.86;100.00
49645;BME280;36494;50.730;-1.932;2023-04-21T03:58:55;100870.51;;;5.87;100.00
49645;BME280;36494;50.730;-1.932;2023-04-21T04:01:20;100865.06;;;5.86;100.00
49645;BME280;36494;50.730;-1.932;2023-04-21T04:03:46;100862.31;;;5.83;100.00
49645;BME280;36494;50.730;-1.932;2023-04-21T04:06:11;100861.33;;;5.83;100.00
49645;BME280;36494;50.730;-1.932;2023-04-21T04:08:36;100860.03;;;5.83;100.00
49645;BME280;36494;50.730;-1.932;2023-04-21T04:11:01;100859.78;;;5.82;100.00
49645;BME280;36494;50.730;-1.932;2023-04-21T04:13:26;100858.15;;;5.81;100.00
49645;BME280;36494;50.730;-1.932;2023-04-21T04:15:52;100856.59;;;5.80;100.00
49645;BME280;36494;50.730;-1.932;2023-04-21T04:18:17;100858.07;;;5.78;100.00
49645;BME280;36494;50.730;-1.932;2023-04-21T04:20:43;100857.70;;;5.76;100.00
49645;BME280;36494;50.730;-1.932;2023-04-21T04:23:09;100852.18;;;5.74;100.00
49645;BME280;36494;50.730;-1.932;2023-04-21T04:25:34;100854.20;;;5.75;100.00
49645;BME280;36494;50.730;-1.932;2023-04-21T04:27:59;100849.23;;;5.71;100.00
49645;BME280;36494;50.730;-1.932;2023-04-21T04:30:25;100845.41;;;5.71;100.00
49645;BME280;36494;50.730;-1.932;2023-04-21T04:32:50;100840.90;;;5.68;100.00
49645;BME280;36494;50.730;-1.932;2023-04-21T04:35:15;100838.56;;;5.67;100.00
49645;BME280;36494;50.730;-1.932;2023-04-21T04:37:41;100838.44;;;5.65;100.00
49645;BME280;36494;50.730;-1.932;2023-04-21T04:40:07;100837.28;;;5.64;100.00
49645;BME280;36494;50.730;-1.932;2023-04-21T04:42:32;100836.20;;;5.63;100.00
49645;BME280;36494;50.730;-1.932;2023-04-21T04:44:57;100839.25;;;5.61;100.00
49645;BME280;36494;50.730;-1.932;2023-04-21T04:47:22;100835.13;;;5.60;100.00
49645;BME280;36494;50.730;-1.932;2023-04-21T04:49:47;100836.13;;;5.59;100.00
49645;BME280;36494;50.730;-1.932;2023-04-21T04:52:13;100833.53;;;5.57;100.00
49645;BME280;36494;50.730;-1.932;2023-04-21T04:54:38;100829.49;;;5.56;100.00
49645;BME280;36494;50.730;-1.932;2023-04-21T04:57:03;100830.79;;;5.55;100.00
49645;BME280;36494;50.730;-1.932;2023-04-21T04:59:28;100830.04;;;5.54;100.00
49645;BME280;36494;50.730;-1.932;2023-04-21T05:01:54;100826.81;;;5.53;100.00
49645;BME280;36494;50.730;-1.932;2023-04-21T05:04:19;100826.24;;;5.51;100.00
49645;BME280;36494;50.730;-1.932;2023-04-21T05:06:44;100824.22;;;5.51;100.00
49645;BME280;36494;50.730;-1.932;2023-04-21T05:09:10;100819.90;;;5.50;100.00
49645;BME280;36494;50.730;-1.932;2023-04-21T05:11:35;100818.26;;;5.48;100.00
49645;BME280;36494;50.730;-1.932;2023-04-21T05:14:01;100813.58;;;5.48;100.00
49645;BME280;36494;50.730;-1.932;2023-04-21T05:16:26;100813.77;;;5.48;100.00
49645;BME280;36494;50.730;-1.932;2023-04-21T05:18:51;100813.72;;;5.47;100.00
49645;BME280;36494;50.730;-1.932;2023-04-21T05:21:22;100815.09;;;5.45;100.00
49645;BME280;36494;50.730;-1.932;2023-04-21T05:23:42;100817.45;;;5.44;100.00
49645;BME280;36494;50.730;-1.932;2023-04-21T05:26:08;100818.69;;;5.44;100.00
49645;BME280;36494;50.730;-1.932;2023-04-21T05:28:33;100815.76;;;5.43;100.00
49645;BME280;36494;50.730;-1.932;2023-04-21T05:30:58;100813.66;;;5.41;100.00
49645;BME280;36494;50.730;-1.932;2023-04-21T05:33:24;100811.64;;;5.40;100.00
49645;BME280;36494;50.730;-1.932;2023-04-21T05:35:49;100811.81;;;5.38;100.00
49645;BME280;36494;50.730;-1.932;2023-04-21T05:38:15;100810.16;;;5.37;100.00
49645;BME280;36494;50.730;-1.932;2023-04-21T05:40:40;100808.34;;;5.36;100.00
49645;BME280;36494;50.730;-1.932;2023-04-21T05:43:06;100804.80;;;5.37;100.00
49645;BME280;36494;50.730;-1.932;2023-04-21T05:45:31;100804.31;;;5.37;100.00
49645;BME280;36494;50.730;-1.932;2023-04-21T05:47:57;100805.37;;;5.38;100.00
49645;BME280;36494;50.730;-1.932;2023-04-21T05:50:23;100804.68;;;5.37;100.00
49645;BME280;36494;50.730;-1.932;2023-04-21T05:52:48;100802.55;;;5.37;100.00
49645;BME280;36494;50.730;-1.932;2023-04-21T05:55:13;100803.84;;;5.39;100.00
49645;BME280;36494;50.730;-1.932;2023-04-21T05:57:39;100801.90;;;5.39;100.00
49645;BME280;36494;50.730;-1.932;2023-04-21T06:00:05;100799.51;;;5.41;100.00
49645;BME280;36494;50.730;-1.932;2023-04-21T06:02:30;100796.28;;;5.42;100.00
49645;BME280;36494;50.730;-1.932;2023-04-21T06:04:55;100795.41;;;5.43;100.00
49645;BME280;36494;50.730;-1.932;2023-04-21T06:07:20;100795.60;;;5.43;100.00
49645;BME280;36494;50.730;-1.932;2023-04-21T06:09:49;100794.69;;;5.44;100.00
49645;BME280;36494;50.730;-1.932;2023-04-21T06:12:11;100798.64;;;5.45;100.00
49645;BME280;36494;50.730;-1.932;2023-04-21T06:14:37;100798.82;;;5.47;100.00
49645;BME280;36494;50.730;-1.932;2023-04-21T06:17:02;100796.81;;;5.49;100.00
49645;BME280;36494;50.730;-1.932;2023-04-21T06:19:28;100799.30;;;5.50;100.00
49645;BME280;36494;50.730;-1.932;2023-04-21T06:21:55;100797.69;;;5.51;100.00
49645;BME280;36494;50.730;-1.932;2023-04-21T06:24:19;100798.18;;;5.55;100.00
49645;BME280;36494;50.730;-1.932;2023-04-21T06:26:44;100797.89;;;5.60;100.00
49645;BME280;36494;50.730;-1.932;2023-04-21T06:29:10;100796.09;;;5.62;100.00
49645;BME280;36494;50.730;-1.932;2023-04-21T06:31:36;100796.78;;;5.64;100.00
49645;BME280;36494;50.730;-1.932;2023-04-21T06:34:01;100798.06;;;5.68;100.00
49645;BME280;36494;50.730;-1.932;2023-04-21T06:36:26;100796.59;;;5.72;100.00
49645;BME280;36494;50.730;-1.932;2023-04-21T06:38:52;100794.35;;;5.74;100.00
49645;BME280;36494;50.730;-1.932;2023-04-21T06:41:18;100794.30;;;5.79;100.00
49645;BME280;36494;50.730;-1.932;2023-04-21T06:43:43;100794.81;;;5.80;100.00
49645;BME280;36494;50.730;-1.932;2023-04-21T06:46:09;100793.20;;;5.85;100.00
49645;BME280;36494;50.730;-1.932;2023-04-21T06:48:34;100790.43;;;5.88;100.00
49645;BME280;36494;50.730;-1.932;2023-04-21T06:50:59;100789.52;;;5.91;100.00
49645;BME280;36494;50.730;-1.932;2023-04-21T06:53:24;100782.69;;;5.94;100.00
49645;BME280;36494;50.730;-1.932;2023-04-21T06:55:50;100776.66;;;5.99;100.00
49645;BME280;36494;50.730;-1.932;2023-04-21T06:58:15;100772.21;;;6.01;100.00
49645;BME280;36494;50.730;-1.932;2023-04-21T07:00:40;100773.44;;;6.05;100.00
49645;BME280;36494;50.730;-1.932;2023-04-21T07:03:06;100772.60;;;6.09;100.00
49645;BME280;36494;50.730;-1.932;2023-04-21T07:05:31;100769.53;;;6.15;100.00
49645;BME280;36494;50.730;-1.932;2023-04-21T07:07:57;100768.00;;;6.20;100.00
49645;BME280;36494;50.730;-1.932;2023-04-21T07:10:23;100765.76;;;6.25;100.00
49645;BME280;36494;50.730;-1.932;2023-04-21T07:12:48;100760.36;;;6.28;100.00
49645;BME280;36494;50.730;-1.932;2023-04-21T07:15:14;100763.23;;;6.32;100.00
49645;BME280;36494;50.730;-1.932;2023-04-21T07:17:39;100757.67;;;6.37;100.00
49645;BME280;36494;50.730;-1.932;2023-04-21T07:20:06;100752.80;;;6.38;100.00
49645;BME280;36494;50.730;-1.932;2023-04-21T07:22:30;100750.55;;;6.43;100.00
49645;BME280;36494;50.730;-1.932;2023-04-21T07:24:55;100750.89;;;6.47;100.00
49645;BME280;36494;50.730;-1.932;2023-04-21T07:27:21;100741.77;;;6.52;100.00
49645;BME280;36494;50.730;-1.932;2023-04-21T07:29:47;100736.25;;;6.54;100.00
49645;BME280;36494;50.730;-1.932;2023-04-21T07:32:12;100731.52;;;6.59;100.00
49645;BME280;36494;50.730;-1.932;2023-04-21T07:34:37;100730.42;;;6.62;100.00
49645;BME280;36494;50.730;-1.932;2023-04-21T07:37:03;100726.30;;;6.66;100.00
49645;BME280;36494;50.730;-1.932;2023-04-21T07:39:29;100722.98;;;6.68;100.00
49645;BME280;36494;50.730;-1.932;2023-04-21T07:41:54;100720.89;;;6.73;100.00
49645;BME280;36494;50.730;-1.932;2023-04-21T07:44:20;100718.54;;;6.77;100.00
49645;BME280;36494;50.730;-1.932;2023-04-21T07:46:45;100715.86;;;6.81;100.00
49645;BME280;36494;50.730;-1.932;2023-04-21T07:49:11;100708.87;;;6.87;100.00
49645;BME280;36494;50.730;-1.932;2023-04-21T07:51:37;100710.49;;;6.93;100.00
49645;BME280;36494;50.730;-1.932;2023-04-21T07:54:02;100709.34;;;6.99;100.00
49645;BME280;36494;50.730;-1.932;2023-04-21T07:56:28;100708.87;;;7.04;100.00
49645;BME280;36494;50.730;-1.932;2023-04-21T07:58:53;100705.60;;;7.07;100.00
49645;BME280;36494;50.730;-1.932;2023-04-21T08:01:18;100705.84;;;7.12;100.00
49645;BME280;36494;50.730;-1.932;2023-04-21T08:03:44;100701.33;;;7.17;100.00
49645;BME280;36494;50.730;-1.932;2023-04-21T08:06:10;100698.81;;;7.25;100.00
49645;BME280;36494;50.730;-1.932;2023-04-21T08:08:36;100695.44;;;7.30;100.00
49645;BME280;36494;50.730;-1.932;2023-04-21T08:11:01;100697.29;;;7.36;100.00
49645;BME280;36494;50.730;-1.932;2023-04-21T08:13:26;100694.03;;;7.42;100.00
49645;BME280;36494;50.730;-1.932;2023-04-21T08:15:52;100695.73;;;7.44;100.00
49645;BME280;36494;50.730;-1.932;2023-04-21T08:18:17;100693.59;;;7.49;100.00
49645;BME280;36494;50.730;-1.932;2023-04-21T08:20:43;100696.15;;;7.54;100.00
49645;BME280;36494;50.730;-1.932;2023-04-21T08:23:08;100694.35;;;7.59;100.00
49645;BME280;36494;50.730;-1.932;2023-04-21T08:25:34;100692.32;;;7.63;100.00
49645;BME280;36494;50.730;-1.932;2023-04-21T08:28:00;100688.98;;;7.67;100.00
49645;BME280;36494;50.730;-1.932;2023-04-21T08:30:26;100686.68;;;7.75;100.00
49645;BME280;36494;50.730;-1.932;2023-04-21T08:32:51;100682.60;;;7.81;100.00
49645;BME280;36494;50.730;-1.932;2023-04-21T08:35:16;100679.05;;;7.87;100.00
49645;BME280;36494;50.730;-1.932;2023-04-21T08:37:42;100674.95;;;7.90;100.00
49645;BME280;36494;50.730;-1.932;2023-04-21T08:40:08;100673.98;;;7.96;100.00
49645;BME280;36494;50.730;-1.932;2023-04-21T08:42:33;100669.81;;;8.03;100.00
49645;BME280;36494;50.730;-1.932;2023-04-21T08:44:58;100668.53;;;8.10;100.00
49645;BME280;36494;50.730;-1.932;2023-04-21T08:47:23;100667.67;;;8.18;100.00
49645;BME280;36494;50.730;-1.932;2023-04-21T08:49:50;100668.14;;;8.27;100.00
49645;BME280;36494;50.730;-1.932;2023-04-21T08:52:14;100667.84;;;8.37;100.00
49645;BME280;36494;50.730;-1.932;2023-04-21T08:54:39;100665.92;;;8.45;100.00
49645;BME280;36494;50.730;-1.932;2023-04-21T08:57:06;100666.47;;;8.52;100.00
49645;BME280;36494;50.730;-1.932;2023-04-21T08:59:30;100667.01;;;8.60;100.00
49645;BME280;36494;50.730;-1.932;2023-04-21T09:02:06;100663.70;;;8.67;100.00
49645;BME280;36494;50.730;-1.932;2023-04-21T09:04:21;100668.39;;;8.74;100.00
49645;BME280;36494;50.730;-1.932;2023-04-21T09:06:46;100666.89;;;8.80;100.00
49645;BME280;36494;50.730;-1.932;2023-04-21T09:09:12;100665.59;;;8.87;100.00
49645;BME280;36494;50.730;-1.932;2023-04-21T09:11:38;100667.71;;;8.94;100.00
49645;BME280;36494;50.730;-1.932;2023-04-21T09:14:04;100666.15;;;9.04;100.00
49645;BME280;36494;50.730;-1.932;2023-04-21T09:16:31;100667.24;;;9.16;100.00
49645;BME280;36494;50.730;-1.932;2023-04-21T09:18:54;100665.28;;;9.32;100.00
49645;BME280;36494;50.730;-1.932;2023-04-21T09:21:19;100665.23;;;9.41;100.00
49645;BME280;36494;50.730;-1.932;2023-04-21T09:23:46;100664.66;;;9.51;100.00
49645;BME280;36494;50.730;-1.932;2023-04-21T09:26:11;100664.02;;;9.64;100.00
49645;BME280;36494;50.730;-1.932;2023-04-21T09:28:36;100661.04;;;9.71;100.00
49645;BME280;36494;50.730;-1.932;2023-04-21T09:31:01;100663.82;;;9.76;100.00
49645;BME280;36494;50.730;-1.932;2023-04-21T09:33:27;100663.06;;;9.85;100.00
49645;BME280;36494;50.730;-1.932;2023-04-21T09:35:52;100664.40;;;9.94;100.00
49645;BME280;36494;50.730;-1.932;2023-04-21T09:38:21;100662.66;;;10.03;100.00
49645;BME280;36494;50.730;-1.932;2023-04-21T09:40:42;100662.42;;;10.11;100.00
49645;BME280;36494;50.730;-1.932;2023-04-21T09:43:08;100655.46;;;10.16;100.00
49645;BME280;36494;50.730;-1.932;2023-04-21T09:45:33;100656.43;;;10.26;100.00
49645;BME280;36494;50.730;-1.932;2023-04-21T09:48:00;100655.26;;;10.30;100.00
49645;BME280;36494;50.730;-1.932;2023-04-21T09:50:25;100654.19;;;10.41;100.00
49645;BME280;36494;50.730;-1.932;2023-04-21T09:52:51;100654.36;;;10.38;100.00
49645;BME280;36494;50.730;-1.932;2023-04-21T09:55:17;100651.83;;;10.36;100.00
49645;BME280;36494;50.730;-1.932;2023-04-21T09:57:41;100649.68;;;10.39;100.00
49645;BME280;36494;50.730;-1.932;2023-04-21T10:00:08;100647.57;;;10.41;100.00
49645;BME280;36494;50.730;-1.932;2023-04-21T10:02:34;100645.32;;;10.46;100.00
49645;BME280;36494;50.730;-1.932;2023-04-21T10:04:57;100645.92;;;10.76;100.00
49645;BME280;36494;50.730;-1.932;2023-04-21T10:07:22;100648.24;;;11.10;100.00
49645;BME280;36494;50.730;-1.932;2023-04-21T10:09:50;100641.95;;;11.33;100.00
49645;BME280;36494;50.730;-1.932;2023-04-21T10:12:14;100633.56;;;11.62;100.00
49645;BME280;36494;50.730;-1.932;2023-04-21T10:14:39;100633.34;;;11.97;100.00
49645;BME280;36494;50.730;-1.932;2023-04-21T10:17:06;100628.90;;;12.18;100.00
49645;BME280;36494;50.730;-1.932;2023-04-21T10:19:30;100632.21;;;12.69;100.00
49645;BME280;36494;50.730;-1.932;2023-04-21T10:21:56;100626.96;;;12.83;100.00
49645;BME280;36494;50.730;-1.932;2023-04-21T10:24:21;100628.16;;;13.12;100.00
49645;BME280;36494;50.730;-1.932;2023-04-21T10:26:49;100627.62;;;13.12;100.00
49645;BME280;36494;50.730;-1.932;2023-04-21T10:29:12;100626.61;;;13.10;100.00
49645;BME280;36494;50.730;-1.932;2023-04-21T10:31:49;100622.70;;;13.30;100.00
49645;BME280;36494;50.730;-1.932;2023-04-21T10:34:18;100621.53;;;13.59;100.00
49645;BME280;36494;50.730;-1.932;2023-04-21T10:36:28;100614.75;;;13.46;100.00
49645;BME280;36494;50.730;-1.932;2023-04-21T10:38:54;100613.47;;;13.38;100.00
49645;BME280;36494;50.730;-1.932;2023-04-21T10:41:26;100609.12;;;13.17;100.00
49645;BME280;36494;50.730;-1.932;2023-04-21T10:43:45;100605.26;;;13.39;100.00
49645;BME280;36494;50.730;-1.932;2023-04-21T10:48:36;100606.51;;;13.29;100.00
49645;BME280;36494;50.730;-1.932;2023-04-21T10:51:01;100605.73;;;13.15;100.00
49645;BME280;36494;50.730;-1.932;2023-04-21T10:53:26;100600.22;;;13.21;100.00
49645;BME280;36494;50.730;-1.932;2023-04-21T10:55:52;100594.22;;;13.36;100.00
49645;BME280;36494;50.730;-1.932;2023-04-21T10:58:17;100590.50;;;13.73;100.00
49645;BME280;36494;50.730;-1.932;2023-04-21T11:00:42;100587.03;;;13.97;100.00
49645;BME280;36494;50.730;-1.932;2023-04-21T11:03:07;100584.59;;;14.30;100.00
49645;BME280;36494;50.730;-1.932;2023-04-21T11:05:35;100581.55;;;14.51;100.00
49645;BME280;36494;50.730;-1.932;2023-04-21T11:08:02;100581.48;;;14.67;100.00
49645;BME280;36494;50.730;-1.932;2023-04-21T11:10:23;100581.89;;;14.70;100.00
49645;BME280;36494;50.730;-1.932;2023-04-21T11:12:48;100579.57;;;14.39;100.00
49645;BME280;36494;50.730;-1.932;2023-04-21T11:15:14;100575.49;;;14.30;100.00
49645;BME280;36494;50.730;-1.932;2023-04-21T11:17:39;100574.63;;;14.36;100.00
49645;BME280;36494;50.730;-1.932;2023-04-21T11:20:06;100574.19;;;14.66;100.00
49645;BME280;36494;50.730;-1.932;2023-04-21T11:22:30;100570.44;;;14.73;100.00
49645;BME280;36494;50.730;-1.932;2023-04-21T11:24:56;100571.01;;;14.67;100.00
49645;BME280;36494;50.730;-1.932;2023-04-21T11:27:21;100568.74;;;14.95;100.00
49645;BME280;36494;50.730;-1.932;2023-04-21T11:29:46;100564.87;;;14.93;100.00
49645;BME280;36494;50.730;-1.932;2023-04-21T11:32:12;100563.35;;;14.19;100.00
49645;BME280;36494;50.730;-1.932;2023-04-21T11:34:37;100560.92;;;13.55;100.00
49645;BME280;36494;50.730;-1.932;2023-04-21T11:37:01;100560.83;;;13.88;100.00
49645;BME280;36494;50.730;-1.932;2023-04-21T11:39:27;100559.11;;;13.86;100.00
49645;BME280;36494;50.730;-1.932;2023-04-21T11:41:52;100561.24;;;13.98;100.00
49645;BME280;36494;50.730;-1.932;2023-04-21T11:44:29;100559.81;;;13.96;100.00
49645;BME280;36494;50.730;-1.932;2023-04-21T11:46:44;100553.29;;;13.33;100.00
49645;BME280;36494;50.730;-1.932;2023-04-21T11:49:11;100555.17;;;12.85;100.00
49645;BME280;36494;50.730;-1.932;2023-04-21T11:51:37;100554.69;;;12.33;100.00
49645;BME280;36494;50.730;-1.932;2023-04-21T11:54:00;100552.77;;;12.49;100.00
49645;BME280;36494;50.730;-1.932;2023-04-21T11:56:25;100548.55;;;12.08;100.00
49645;BME280;36494;50.730;-1.932;2023-04-21T11:58:51;100546.20;;;11.93;100.00
49645;BME280;36494;50.730;-1.932;2023-04-21T12:01:16;100542.47;;;11.93;100.00
49645;BME280;36494;50.730;-1.932;2023-04-21T12:03:41;100540.77;;;11.91;100.00
49645;BME280;36494;50.730;-1.932;2023-04-21T12:06:07;100540.27;;;11.99;100.00
49645;BME280;36494;50.730;-1.932;2023-04-21T12:08:33;100542.39;;;12.16;100.00
49645;BME280;36494;50.730;-1.932;2023-04-21T12:11:01;100539.77;;;11.99;100.00
49645;BME280;36494;50.730;-1.932;2023-04-21T12:13:26;100541.00;;;11.95;100.00
49645;BME280;36494;50.730;-1.932;2023-04-21T12:15:50;100542.75;;;11.99;100.00
49645;BME280;36494;50.730;-1.932;2023-04-21T12:18:15;100540.41;;;11.83;100.00
49645;BME280;36494;50.730;-1.932;2023-04-21T12:20:47;100539.65;;;12.14;100.00
49645;BME280;36494;50.730;-1.932;2023-04-21T12:23:06;100540.18;;;12.30;100.00
49645;BME280;36494;50.730;-1.932;2023-04-21T12:25:32;100538.50;;;12.40;100.00
49645;BME280;36494;50.730;-1.932;2023-04-21T12:27:57;100538.04;;;12.61;100.00
49645;BME280;36494;50.730;-1.932;2023-04-21T12:30:22;100539.16;;;12.69;100.00